createdAt,value
2022-11-27T08:38:20.665Z,39.30
2022-11-27T08:41:04.688Z,36.40
2022-11-27T08:43:34.131Z,32.90
2022-11-27T08:46:07.757Z,30.40
2022-11-27T08:49:09.343Z,30.20
2022-11-27T08:51:37.993Z,27.00
2022-11-27T08:54:07.434Z,29.70
2022-11-27T08:56:36.573Z,25.10
2022-11-27T08:59:05.180Z,27.00
2022-11-27T09:01:34.213Z,30.40
2022-11-27T09:04:03.278Z,32.90
2022-11-27T09:06:37.507Z,24.20
2022-11-27T09:09:06.349Z,30.50
2022-11-27T09:11:36.645Z,24.80
2022-11-27T09:14:06.233Z,24.00
2022-11-27T09:16:36.393Z,26.30
2022-11-27T09:19:05.052Z,25.30
2022-11-27T09:21:33.725Z,26.60
2022-11-27T09:24:02.751Z,27.90
2022-11-27T09:26:31.473Z,28.00
2022-11-27T09:29:00.568Z,29.40
2022-11-27T09:31:29.276Z,30.20
2022-11-27T09:34:00.259Z,33.70
2022-11-27T09:36:28.928Z,29.00
2022-11-27T09:39:00.983Z,27.80
2022-11-27T09:41:53.893Z,32.00
2022-11-27T09:44:34.291Z,32.50
2022-11-27T09:47:20.662Z,34.00
2022-11-27T09:50:15.471Z,27.30
2022-11-27T09:53:22.352Z,28.00
2022-11-27T09:55:56.462Z,28.00
2022-11-27T09:58:56.740Z,32.40
2022-11-27T10:01:42.054Z,31.70
2022-11-27T10:04:20.841Z,33.40
2022-11-27T10:07:26.683Z,32.70
2022-11-27T10:10:47.382Z,31.40
2022-11-27T10:13:25.672Z,35.80
2022-11-27T10:16:10.165Z,35.60
2022-11-27T10:18:57.278Z,32.40
2022-11-27T10:21:52.835Z,36.30
2022-11-27T10:24:57.913Z,39.40
2022-11-27T10:27:51.100Z,33.10
2022-11-27T10:30:22.263Z,36.20
2022-11-27T10:32:56.629Z,32.80
2022-11-27T10:35:31.906Z,36.30
2022-11-27T10:38:20.257Z,36.70
2022-11-27T10:41:49.151Z,41.90
2022-11-27T10:44:35.963Z,39.00
2022-11-27T10:47:10.672Z,54.30
2022-11-27T10:50:36.192Z,35.10
2022-11-27T10:53:36.478Z,30.10
2022-11-27T10:56:15.830Z,33.00
2022-11-27T10:59:04.708Z,38.10
2022-11-27T11:01:50.505Z,31.00
2022-11-27T11:04:38.756Z,34.70
2022-11-27T11:07:29.961Z,36.50
2022-11-27T11:09:58.677Z,35.50
2022-11-27T11:12:27.544Z,35.90
2022-11-27T11:15:00.945Z,33.80
2022-11-27T11:17:35.075Z,35.90
2022-11-27T11:20:25.128Z,30.80
2022-11-27T11:22:54.397Z,43.00
2022-11-27T11:25:23.426Z,39.20
2022-11-27T11:27:52.985Z,40.50
2022-11-27T11:30:30.713Z,32.80
2022-11-27T11:33:04.528Z,35.30
2022-11-27T11:35:36.730Z,33.60
2022-11-27T11:38:17.239Z,36.60
2022-11-27T11:40:59.480Z,34.80
2022-11-27T11:43:37.614Z,34.40
2022-11-27T11:46:19.708Z,38.00
2022-11-27T11:48:56.135Z,34.20
2022-11-27T11:51:52.383Z,33.80
2022-11-27T11:54:54.867Z,34.90
2022-11-27T11:57:46.746Z,37.80
2022-11-27T12:00:29.804Z,36.10
2022-11-27T12:03:37.882Z,39.30
2022-11-27T12:06:25.034Z,40.00
2022-11-27T12:09:25.269Z,42.70
2022-11-27T12:12:33.853Z,43.60
2022-11-27T12:15:45.037Z,40.30
2022-11-27T12:18:38.047Z,40.80
2022-11-27T12:21:12.800Z,43.30
2022-11-27T12:24:01.690Z,38.30
2022-11-27T12:26:56.626Z,46.40
2022-11-27T12:29:39.862Z,43.70
2022-11-27T12:33:04.501Z,45.40
2022-11-27T12:36:08.069Z,45.00
2022-11-27T12:39:17.891Z,40.60
2022-11-27T12:41:51.844Z,47.00
2022-11-27T12:44:35.945Z,45.20
2022-11-27T12:47:44.431Z,51.30
2022-11-27T12:50:57.215Z,50.60
2022-11-27T12:53:56.769Z,40.40
2022-11-27T12:56:46.341Z,55.80
2022-11-27T12:59:31.695Z,50.40
2022-11-27T13:02:09.732Z,51.90
2022-11-27T13:04:55.124Z,51.40
2022-11-27T13:07:27.945Z,57.10
2022-11-27T13:10:24.309Z,50.00
2022-11-27T13:13:15.139Z,49.30
2022-11-27T13:16:11.786Z,44.30
2022-11-27T13:18:44.465Z,50.30
2022-11-27T13:21:30.109Z,49.30
2022-11-27T13:24:02.463Z,50.20
2022-11-27T13:26:31.142Z,51.90
2022-11-27T13:29:06.798Z,52.50
2022-11-27T13:31:39.740Z,51.40
2022-11-27T13:34:21.660Z,53.10
2022-11-27T13:36:59.819Z,48.50
2022-11-27T13:39:40.962Z,50.80
2022-11-27T13:42:22.637Z,51.40
2022-11-27T13:45:29.551Z,51.50
2022-11-27T13:48:02.144Z,54.60
2022-11-27T13:50:32.510Z,52.90
2022-11-27T13:53:06.530Z,50.50
2022-11-27T13:55:52.067Z,52.80
2022-11-27T13:58:35.133Z,53.20
2022-11-27T14:01:25.543Z,51.10
2022-11-27T14:03:54.241Z,53.50
2022-11-27T14:06:32.184Z,57.10
2022-11-27T14:09:08.936Z,58.00
2022-11-27T14:11:48.307Z,59.60
2022-11-27T14:14:28.768Z,55.50
2022-11-27T14:17:05.144Z,59.40
2022-11-27T14:19:47.578Z,55.20
2022-11-27T14:22:33.997Z,57.00
2022-11-27T14:25:02.778Z,57.30
2022-11-27T14:27:36.383Z,53.80
2022-11-27T14:30:41.420Z,47.80
2022-11-27T14:33:24.003Z,40.30
2022-11-27T14:36:00.564Z,38.90
2022-11-27T14:38:31.696Z,35.40
2022-11-27T14:41:23.078Z,28.30
2022-11-27T14:44:07.683Z,31.90
2022-11-27T14:46:38.127Z,30.40
2022-11-27T14:49:07.326Z,28.50
2022-11-27T14:51:37.533Z,28.30
2022-11-27T14:54:25.883Z,29.70
2022-11-27T14:56:55.325Z,29.30
2022-11-27T14:59:25.887Z,31.50
2022-11-27T15:02:07.044Z,28.80
2022-11-27T15:04:38.885Z,31.30
2022-11-27T15:07:30.745Z,30.20
2022-11-27T15:10:05.468Z,30.20
2022-11-27T15:12:43.005Z,28.20
2022-11-27T15:15:42.262Z,28.40
2022-11-27T15:18:25.581Z,31.30
2022-11-27T15:20:55.667Z,24.70
2022-11-27T15:23:31.498Z,30.20
2022-11-27T15:26:00.117Z,31.40
2022-11-27T15:28:53.391Z,34.30
2022-11-27T15:31:29.923Z,30.70
2022-11-27T15:34:21.122Z,31.80
2022-11-27T15:37:06.640Z,32.80
2022-11-27T15:39:54.850Z,31.80
2022-11-27T15:42:24.688Z,34.60
2022-11-27T15:44:58.317Z,33.00
2022-11-27T15:47:35.503Z,35.80
2022-11-27T15:50:06.968Z,16.70
2022-11-27T15:52:35.606Z,32.70
2022-11-27T15:55:04.524Z,33.30
2022-11-27T15:57:33.135Z,30.60
2022-11-27T16:00:01.874Z,30.90
2022-11-27T16:02:40.694Z,33.90
2022-11-27T16:05:09.785Z,34.10
2022-11-27T16:07:38.575Z,35.30
2022-11-27T16:10:08.526Z,29.90
2022-11-27T16:12:39.005Z,35.80
2022-11-27T16:15:09.486Z,37.50
2022-11-27T16:17:38.167Z,37.60
2022-11-27T16:20:08.728Z,36.70
2022-11-27T16:22:38.369Z,35.70
2022-11-27T16:25:08.274Z,34.30
2022-11-27T16:27:37.628Z,34.10
2022-11-27T16:30:10.228Z,34.30
2022-11-27T16:32:40.248Z,29.90
2022-11-27T16:35:10.065Z,31.00
2022-11-27T16:37:39.064Z,35.70
2022-11-27T16:40:08.925Z,32.30
2022-11-27T16:42:38.170Z,33.10
2022-11-27T16:45:08.762Z,25.60
2022-11-27T16:47:37.609Z,32.40
2022-11-27T16:50:07.423Z,31.00
2022-11-27T16:52:39.528Z,34.80
2022-11-27T16:55:09.800Z,27.20
2022-11-27T16:57:39.727Z,29.70
2022-11-27T17:00:09.015Z,28.90
2022-11-27T17:02:37.765Z,33.60
2022-11-27T17:05:07.522Z,29.10
2022-11-27T17:07:36.487Z,25.90
2022-11-27T17:10:09.101Z,32.70
2022-11-27T17:12:37.901Z,30.50
2022-11-27T17:15:08.141Z,33.70
2022-11-27T17:17:40.322Z,26.40
2022-11-27T17:20:10.243Z,24.40
2022-11-27T17:22:39.141Z,31.20
2022-11-27T17:25:12.187Z,29.90
2022-11-27T17:30:10.696Z,30.70
2022-11-27T17:32:39.405Z,34.20
2022-11-27T17:35:08.961Z,22.00
2022-11-27T17:37:37.763Z,35.10
2022-11-27T17:40:08.084Z,33.70
2022-11-27T17:42:37.699Z,27.00
2022-11-27T17:45:07.176Z,31.30
2022-11-27T17:47:35.901Z,33.50
2022-11-27T17:50:08.276Z,27.60
2022-11-27T17:52:37.528Z,29.30
2022-11-27T17:55:07.835Z,28.10
2022-11-27T17:57:36.782Z,27.60
2022-11-27T18:00:06.809Z,30.40
2022-11-27T18:02:42.877Z,33.40
2022-11-27T18:05:11.674Z,26.20
2022-11-27T18:07:40.507Z,28.10
2022-11-27T18:10:10.189Z,28.50
2022-11-27T18:12:39.078Z,30.20
2022-11-27T18:15:09.755Z,25.80
2022-11-27T18:17:39.244Z,30.60
2022-11-27T18:20:11.669Z,28.70
2022-11-27T18:28:50.201Z,30.60
2022-11-27T18:31:20.377Z,30.10
2022-11-27T18:33:49.039Z,28.80
2022-11-27T18:36:18.918Z,31.30
2022-11-27T18:38:48.046Z,30.20
2022-11-27T18:41:28.392Z,28.90
2022-11-27T18:43:58.462Z,30.00
2022-11-27T18:46:27.872Z,28.30
2022-11-27T18:48:56.575Z,31.20
2022-11-27T18:51:26.765Z,29.40
2022-11-27T18:53:56.913Z,29.10
2022-11-27T18:56:32.987Z,32.20
2022-11-27T18:59:04.668Z,30.10
2022-11-27T19:01:42.018Z,31.30
2022-11-27T19:04:16.163Z,33.00
2022-11-27T19:06:44.854Z,37.30
2022-11-27T19:09:14.768Z,31.90
2022-11-27T19:11:45.024Z,32.20
2022-11-27T19:14:14.531Z,33.60
2022-11-27T19:16:48.799Z,32.10
2022-11-27T19:19:53.889Z,33.50
2022-11-27T19:22:08.358Z,29.50
2022-11-27T19:24:37.857Z,28.50
2022-11-27T19:27:06.509Z,28.40
2022-11-27T19:29:35.266Z,30.70
2022-11-27T19:32:04.196Z,31.90
2022-11-27T19:34:33.009Z,28.10
2022-11-27T19:37:01.771Z,29.70
2022-11-27T19:39:30.667Z,26.80
2022-11-27T19:42:00.336Z,28.00
2022-11-27T19:44:30.784Z,26.50
2022-11-27T19:47:00.724Z,32.30
2022-11-27T19:49:29.911Z,29.30
2022-11-27T19:51:58.746Z,30.80
2022-11-27T19:54:27.508Z,29.30
2022-11-27T19:56:56.495Z,31.00
2022-11-27T19:59:26.258Z,28.00
2022-11-27T20:01:56.354Z,27.70
2022-11-27T20:04:27.902Z,30.70
2022-11-27T20:06:56.619Z,29.20
2022-11-27T20:09:25.332Z,28.50
2022-11-27T20:11:54.532Z,28.40
2022-11-27T20:14:23.224Z,26.90
2022-11-27T20:16:52.560Z,24.60
2022-11-27T20:19:21.349Z,25.40
2022-11-27T20:21:51.563Z,31.20
2022-11-27T20:24:20.943Z,33.00
2022-11-27T20:26:50.007Z,28.90
2022-11-27T20:29:19.854Z,29.70
2022-11-27T20:31:49.285Z,32.40
2022-11-27T20:34:22.401Z,28.50
2022-11-27T20:36:51.433Z,28.60
2022-11-27T20:39:21.934Z,33.10
2022-11-27T20:41:52.538Z,34.10
2022-11-27T20:44:22.800Z,35.30
2022-11-27T20:46:51.710Z,32.00
2022-11-27T20:49:20.949Z,31.50
2022-11-27T20:51:50.838Z,36.60
2022-11-27T20:54:23.141Z,33.60
2022-11-27T20:56:51.900Z,32.60
2022-11-27T20:59:22.491Z,32.10
2022-11-27T21:01:51.677Z,31.20
2022-11-27T21:04:26.605Z,28.10
2022-11-27T21:06:58.744Z,32.20
2022-11-27T21:09:27.605Z,30.40
2022-11-27T21:11:56.292Z,30.50
2022-11-27T21:14:25.447Z,29.60
2022-11-27T21:16:54.642Z,31.00
2022-11-27T21:19:26.811Z,28.10
2022-11-27T21:21:57.449Z,31.00
2022-11-27T21:24:29.244Z,30.90
2022-11-27T21:26:58.131Z,31.10
2022-11-27T21:29:29.604Z,28.30
2022-11-27T21:31:59.917Z,33.40
2022-11-27T21:34:28.612Z,35.20
2022-11-27T21:36:57.388Z,34.50
2022-11-27T21:39:26.843Z,32.80
2022-11-27T21:41:56.569Z,28.70
2022-11-27T21:44:26.155Z,31.00
2022-11-27T21:46:55.086Z,35.00
2022-11-27T21:49:24.244Z,31.60
2022-11-27T21:51:54.397Z,33.10
2022-11-27T21:54:29.466Z,37.90
2022-11-27T21:56:58.518Z,31.90
2022-11-27T21:59:27.171Z,38.50
2022-11-27T22:01:57.833Z,28.80
2022-11-27T22:04:26.929Z,33.20
2022-11-27T22:06:55.586Z,30.10
2022-11-27T22:09:24.280Z,33.20
2022-11-27T22:11:53.214Z,28.80
2022-11-27T22:14:21.814Z,37.20
2022-11-27T22:16:50.586Z,25.10
2022-11-27T22:19:19.316Z,33.20
2022-11-27T22:21:48.703Z,37.00
2022-11-27T22:24:19.756Z,37.00
2022-11-27T22:26:52.164Z,34.00
2022-11-27T22:29:21.110Z,30.80
2022-11-27T22:31:53.397Z,32.20
2022-11-27T22:34:22.375Z,35.30
2022-11-27T22:36:51.737Z,35.10
2022-11-27T22:39:20.394Z,29.80
2022-11-27T22:41:49.088Z,35.50
2022-11-27T22:44:21.259Z,37.00
2022-11-27T22:46:51.055Z,38.90
2022-11-27T22:49:20.247Z,39.40
2022-11-27T22:51:49.020Z,36.80
2022-11-27T22:54:18.545Z,39.40
2022-11-27T22:56:47.539Z,35.50
2022-11-27T22:59:34.011Z,37.00
2022-11-27T23:02:07.456Z,35.20
2022-11-27T23:04:38.239Z,32.10
2022-11-27T23:07:07.250Z,33.80
2022-11-27T23:09:36.354Z,32.20
2022-11-27T23:12:05.791Z,34.80
2022-11-27T23:14:34.957Z,28.60
2022-11-27T23:17:03.947Z,33.60
2022-11-27T23:19:32.766Z,37.40
2022-11-27T23:22:01.423Z,41.20
2022-11-27T23:24:30.209Z,39.70
2022-11-27T23:26:59.100Z,39.00
2022-11-27T23:29:28.097Z,40.10
2022-11-27T23:31:56.963Z,38.40
2022-11-27T23:34:25.678Z,36.90
2022-11-27T23:36:54.355Z,36.60
2022-11-27T23:39:23.256Z,37.60
2022-11-27T23:41:52.062Z,37.50
2022-11-27T23:44:21.450Z,37.10
2022-11-27T23:46:50.235Z,36.00
2022-11-27T23:49:19.141Z,36.40
2022-11-27T23:51:48.526Z,36.30
2022-11-27T23:54:17.319Z,30.90
2022-11-27T23:56:46.206Z,35.30
2022-11-27T23:59:15.104Z,33.80
